Time;durP1;ratioP1;P1;durP2;ratioP2;P2;SDS_P1;SDS_P2;PMS_P1;PMS_P2;Temp;Humidity;BMP_temperature;BMP_pressure;BME280_temperature;BME280_humidity;BME280_pressure;Samples;Min_cycle;Max_cycle;Signal;HPM_P1;HPM_P2
2024/03/31 00:01:10;;;;;;;8.93;5.80;;;7.90;99.90;;;;;;5052635;28;20041;-48
2024/03/31 00:03:37;;;;;;;9.95;6.13;;;7.90;99.90;;;;;;5052833;28;20029;-42
2024/03/31 00:06:03;;;;;;;10.82;6.43;;;7.90;99.90;;;;;;5052994;28;20393;-42
2024/03/31 00:08:29;;;;;;;11.00;6.63;;;7.90;99.90;;;;;;5051152;28;20029;-45
2024/03/31 00:11:03;;;;;;;8.45;6.00;;;7.90;99.90;;;;;;5052730;28;20375;-54
2024/03/31 00:13:28;;;;;;;10.55;6.30;;;7.90;99.90;;;;;;5052626;28;20519;-54
2024/03/31 00:15:54;;;;;;;9.82;6.50;;;7.90;99.90;;;;;;5052670;28;20025;-53
2024/03/31 00:18:20;;;;;;;9.55;6.28;;;7.90;99.90;;;;;;5064138;28;20119;-54
2024/03/31 00:20:46;;;;;;;12.55;7.57;;;7.90;99.90;;;;;;5052567;28;20551;-55
2024/03/31 00:23:11;;;;;;;12.13;7.53;;;7.90;99.90;;;;;;5052393;28;20036;-53
2024/03/31 00:25:38;;;;;;;13.27;8.35;;;8.00;99.90;;;;;;5052541;28;20028;-53
2024/03/31 00:28:04;;;;;;;13.80;8.95;;;8.10;99.90;;;;;;5052420;28;20021;-53
2024/03/31 00:30:30;;;;;;;13.77;8.40;;;8.10;99.90;;;;;;5051226;28;20051;-54
2024/03/31 00:32:55;;;;;;;14.45;8.20;;;8.10;99.90;;;;;;5052445;28;20381;-53
2024/03/31 00:35:21;;;;;;;16.52;8.82;;;8.10;99.90;;;;;;5052777;28;20017;-55
2024/03/31 00:37:47;;;;;;;16.13;8.93;;;8.20;99.90;;;;;;5052337;28;20531;-53
2024/03/31 00:40:13;;;;;;;13.32;8.15;;;8.20;99.90;;;;;;5051362;28;20033;-55
2024/03/31 00:42:38;;;;;;;11.45;7.25;;;8.20;99.90;;;;;;5052156;28;20020;-54
2024/03/31 00:45:04;;;;;;;12.88;7.70;;;8.20;99.90;;;;;;5052159;28;20025;-56
2024/03/31 00:47:30;;;;;;;14.50;8.18;;;8.20;99.90;;;;;;5052083;28;20406;-53
2024/03/31 00:49:55;;;;;;;16.52;8.20;;;8.20;99.90;;;;;;5052217;28;20044;-54
2024/03/31 00:52:21;;;;;;;13.90;7.10;;;8.10;99.90;;;;;;5052168;28;20516;-53
2024/03/31 00:54:47;;;;;;;11.77;7.03;;;8.20;99.90;;;;;;5047743;28;20021;-54
2024/03/31 00:57:12;;;;;;;16.70;7.75;;;8.20;99.90;;;;;;5039036;28;20029;-56
2024/03/31 00:59:38;;;;;;;12.88;6.70;;;8.20;99.90;;;;;;5050139;28;20460;-51
2024/03/31 01:02:04;;;;;;;14.75;7.85;;;8.20;99.90;;;;;;5051838;28;20028;-55
2024/03/31 01:04:29;;;;;;;13.65;7.75;;;8.20;99.90;;;;;;5051498;28;20497;-53
2024/03/31 01:06:55;;;;;;;18.58;8.00;;;8.20;99.90;;;;;;5051772;28;20058;-55
2024/03/31 01:09:20;;;;;;;15.50;7.75;;;8.30;99.90;;;;;;5051551;28;20056;-52
2024/03/31 01:11:46;;;;;;;16.05;7.72;;;8.40;99.90;;;;;;5051819;28;20013;-54
2024/03/31 01:14:14;;;;;;;14.32;7.80;;;8.40;99.90;;;;;;5052138;28;20413;-56
2024/03/31 01:16:40;;;;;;;22.02;9.65;;;8.20;99.90;;;;;;5050485;28;20029;-58
2024/03/31 01:19:05;;;;;;;15.77;8.20;;;8.20;99.90;;;;;;5051726;28;20587;-55
2024/03/31 01:21:33;;;;;;;17.98;8.20;;;8.10;99.90;;;;;;5052407;28;20032;-42
2024/03/31 01:23:59;;;;;;;;;;;8.10;99.90;;;;;;5052484;28;20428;-43
2024/03/31 01:26:25;;;;;;;12.88;6.85;;;8.20;99.90;;;;;;5051664;28;19905;-54
2024/03/31 01:28:51;;;;;;;14.65;7.25;;;8.20;99.90;;;;;;5051953;28;20482;-54
2024/03/31 01:31:17;;;;;;;13.95;8.18;;;8.40;99.90;;;;;;5051653;28;20020;-54
2024/03/31 01:33:44;;;;;;;16.73;8.68;;;8.50;99.90;;;;;;5051681;28;20033;-54
2024/03/31 01:36:09;;;;;;;22.55;10.15;;;8.60;99.90;;;;;;5051715;28;20474;-53
2024/03/31 01:38:35;;;;;;;15.27;8.20;;;8.60;99.90;;;;;;5051673;28;20032;-57
2024/03/31 01:41:01;;;;;;;12.98;7.43;;;8.50;99.90;;;;;;5051927;28;20075;-59
2024/03/31 01:43:26;;;;;;;19.00;8.52;;;8.50;99.90;;;;;;5051466;28;20104;-54
2024/03/31 01:45:52;;;;;;;16.00;7.63;;;8.40;99.90;;;;;;5050288;28;20116;-44
2024/03/31 01:48:18;;;;;;;19.42;7.93;;;8.40;99.90;;;;;;5051675;28;20013;-44
2024/03/31 01:50:44;;;;;;;16.05;8.10;;;8.50;99.90;;;;;;5050234;28;20057;-43
2024/03/31 01:53:10;;;;;;;18.92;8.93;;;8.50;99.90;;;;;;5055045;28;20086;-46
2024/03/31 01:55:35;;;;;;;15.45;8.35;;;8.50;99.90;;;;;;5055219;28;20551;-44
2024/03/31 01:58:01;;;;;;;16.10;8.25;;;8.50;99.90;;;;;;5055031;28;20020;-41
2024/03/31 02:00:27;;;;;;;15.57;8.48;;;8.50;99.90;;;;;;5055199;28;20362;-46
2024/03/31 02:02:52;;;;;;;16.38;7.28;;;8.50;99.90;;;;;;5055006;28;20029;-42
2024/03/31 02:05:18;;;;;;;13.60;8.45;;;8.60;99.90;;;;;;5055118;28;20052;-42
2024/03/31 02:07:44;;;;;;;14.27;7.65;;;8.70;99.90;;;;;;5055109;28;20025;-44
2024/03/31 02:10:10;;;;;;;16.02;7.93;;;8.70;99.90;;;;;;5054925;28;20390;-43
2024/03/31 02:12:37;;;;;;;13.82;7.97;;;8.70;99.90;;;;;;5054634;28;20100;-43
2024/03/31 02:15:03;;;;;;;17.65;8.02;;;8.70;99.90;;;;;;5060790;28;20074;-43
2024/03/31 02:17:29;;;;;;;14.00;7.25;;;8.70;99.90;;;;;;5068678;28;20020;-42
2024/03/31 02:19:54;;;;;;;13.20;7.80;;;8.70;99.90;;;;;;5054566;28;20413;-48
2024/03/31 02:22:20;;;;;;;14.00;7.90;;;8.70;99.90;;;;;;5054501;28;20410;-41
2024/03/31 02:24:46;;;;;;;12.90;6.63;;;8.70;99.90;;;;;;5034633;28;20076;-55
2024/03/31 02:27:12;;;;;;;17.88;7.18;;;8.70;99.90;;;;;;5034656;28;20025;-54
2024/03/31 02:29:38;;;;;;;14.80;7.35;;;8.70;99.90;;;;;;5034495;28;20397;-52
2024/03/31 02:32:04;;;;;;;14.13;6.97;;;8.70;99.90;;;;;;5034637;28;20032;-43
2024/03/31 02:34:30;;;;;;;13.25;6.55;;;8.80;99.90;;;;;;5040978;28;20025;-40
2024/03/31 02:36:56;;;;;;;14.18;6.82;;;8.80;99.90;;;;;;5054661;28;20025;-47
2024/03/31 02:39:21;;;;;;;11.18;5.47;;;8.90;99.90;;;;;;5052864;28;20496;-51
2024/03/31 02:41:47;;;;;;;9.52;5.45;;;8.90;99.90;;;;;;5054522;28;20024;-42
2024/03/31 02:44:13;;;;;;;8.00;4.97;;;9.00;99.90;;;;;;5054213;28;20086;-47
2024/03/31 02:46:38;;;;;;;11.02;5.72;;;9.00;99.90;;;;;;5054197;28;20409;-47
2024/03/31 02:49:04;;;;;;;9.00;5.40;;;9.10;99.90;;;;;;5054065;28;20029;-43
2024/03/31 02:51:29;;;;;;;9.95;5.32;;;9.10;99.90;;;;;;5054016;28;20485;-45
2024/03/31 02:53:55;;;;;;;8.23;4.75;;;9.10;99.90;;;;;;5054065;28;20497;-55
2024/03/31 02:56:21;;;;;;;9.52;5.68;;;9.00;99.90;;;;;;5054033;28;20120;-44
2024/03/31 02:58:46;;;;;;;10.20;5.45;;;8.90;99.90;;;;;;5054320;28;20465;-43
2024/03/31 03:01:12;;;;;;;9.93;4.85;;;8.80;99.90;;;;;;5053965;28;20582;-41
2024/03/31 03:03:37;;;;;;;7.80;4.47;;;8.80;99.90;;;;;;5052930;28;20470;-42
2024/03/31 03:06:03;;;;;;;7.65;4.72;;;8.70;99.90;;;;;;5054242;28;20029;-40
2024/03/31 03:08:29;;;;;;;8.98;5.00;;;8.80;99.90;;;;;;5053098;28;20512;-42
2024/03/31 03:10:56;;;;;;;8.95;4.45;;;8.80;99.90;;;;;;5053726;28;20025;-41
2024/03/31 03:13:22;;;;;;;11.38;4.72;;;8.80;99.90;;;;;;5053476;28;20017;-41
2024/03/31 03:15:48;;;;;;;8.55;4.63;;;8.90;99.90;;;;;;5064644;28;20515;-43
2024/03/31 03:18:15;;;;;;;9.35;5.53;;;9.00;99.90;;;;;;5072285;28;20032;-57
2024/03/31 03:20:41;;;;;;;9.40;4.60;;;9.00;99.90;;;;;;5073722;28;20112;-55
2024/03/31 03:23:07;;;;;;;9.57;4.80;;;8.90;99.90;;;;;;5073476;28;20575;-54
2024/03/31 03:25:33;;;;;;;6.65;4.50;;;9.00;99.90;;;;;;5066520;28;20037;-58
2024/03/31 03:27:58;;;;;;;7.93;4.85;;;9.00;99.90;;;;;;5053532;28;20033;-55
2024/03/31 03:30:24;;;;;;;8.20;4.72;;;8.90;99.90;;;;;;5053280;28;20025;-53
2024/03/31 03:32:53;;;;;;;7.93;4.55;;;9.00;99.90;;;;;;5053522;28;20393;-51
2024/03/31 03:35:19;;;;;;;5.53;3.60;;;9.00;99.90;;;;;;5053226;28;20123;-55
2024/03/31 03:37:47;;;;;;;7.30;4.03;;;9.00;99.90;;;;;;5053288;28;20021;-54
2024/03/31 03:40:13;;;;;;;6.88;4.45;;;9.00;99.90;;;;;;5053204;28;20025;-54
2024/03/31 03:42:39;;;;;;;6.93;4.22;;;9.00;99.90;;;;;;5053007;28;20381;-54
2024/03/31 03:45:05;;;;;;;8.38;4.13;;;8.90;99.90;;;;;;5053314;28;20017;-55
2024/03/31 03:47:31;;;;;;;9.98;4.60;;;8.90;99.90;;;;;;5052952;28;20049;-55
2024/03/31 03:49:56;;;;;;;8.88;4.72;;;8.90;99.90;;;;;;5052982;28;20436;-56
2024/03/31 03:52:22;;;;;;;5.97;3.72;;;8.80;99.90;;;;;;5053194;28;20615;-55
2024/03/31 03:54:48;;;;;;;10.30;4.55;;;8.80;99.90;;;;;;5053283;28;20462;-55
2024/03/31 03:57:13;;;;;;;6.93;3.85;;;8.80;99.90;;;;;;5052839;28;20017;-54
2024/03/31 03:59:39;;;;;;;8.55;4.68;;;8.80;99.90;;;;;;5052055;28;20074;-55
2024/03/31 04:02:05;;;;;;;5.85;4.00;;;8.80;99.90;;;;;;5052928;28;20116;-45
2024/03/31 04:04:31;;;;;;;6.55;4.20;;;8.70;99.90;;;;;;5053231;28;20512;-42
2024/03/31 04:06:56;;;;;;;7.55;4.38;;;8.70;99.90;;;;;;5047021;28;20163;-43
2024/03/31 04:09:22;;;;;;;6.40;3.78;;;8.70;99.90;;;;;;5052734;28;20029;-55
2024/03/31 04:11:48;;;;;;;5.88;3.60;;;8.50;99.90;;;;;;5047384;28;20014;-54
2024/03/31 04:14:14;;;;;;;5.97;3.92;;;8.50;99.90;;;;;;5032791;28;20025;-54
2024/03/31 04:16:39;;;;;;;4.22;3.50;;;8.50;99.90;;;;;;5052109;28;20013;-55
2024/03/31 04:19:05;;;;;;;7.63;4.57;;;8.40;99.90;;;;;;5052344;28;20051;-55
2024/03/31 04:21:31;;;;;;;6.32;3.50;;;8.40;99.90;;;;;;5052249;28;20474;-59
2024/03/31 04:23:57;;;;;;;5.93;3.55;;;8.40;99.90;;;;;;5049108;28;20501;-54
2024/03/31 04:26:25;;;;;;;5.63;4.07;;;8.50;99.90;;;;;;5032576;28;20068;-55
2024/03/31 04:28:52;;;;;;;9.27;4.03;;;8.50;99.90;;;;;;5049534;28;20025;-55
2024/03/31 04:31:18;;;;;;;7.30;4.80;;;8.50;99.90;;;;;;5052308;28;20029;-54
2024/03/31 04:33:44;;;;;;;6.30;4.20;;;8.40;99.90;;;;;;5050502;28;20548;-41
2024/03/31 04:36:13;;;;;;;9.07;4.78;;;8.40;99.90;;;;;;5052303;28;20112;-41
2024/03/31 04:38:39;;;;;;;6.15;3.75;;;8.40;99.90;;;;;;5052377;28;20032;-41
2024/03/31 04:41:05;;;;;;;10.02;4.47;;;8.50;99.90;;;;;;5052203;28;20446;-40
2024/03/31 04:43:32;;;;;;;7.10;4.15;;;8.40;99.90;;;;;;5051863;28;20033;-55
2024/03/31 04:46:08;;;;;;;8.48;4.18;;;8.50;99.90;;;;;;5052550;28;20435;-54
2024/03/31 04:48:35;;;;;;;6.15;3.85;;;8.60;99.90;;;;;;5052063;28;20064;-56
2024/03/31 04:51:05;;;;;;;6.30;4.07;;;8.60;99.90;;;;;;5052316;28;20477;-55
2024/03/31 04:53:37;;;;;;;5.53;4.07;;;8.60;99.90;;;;;;5050558;28;20044;-42
2024/03/31 04:56:04;;;;;;;5.97;3.92;;;8.60;99.90;;;;;;5051983;28;20033;-41
2024/03/31 04:58:31;;;;;;;6.90;4.15;;;8.60;99.90;;;;;;5051356;28;20517;-40
2024/03/31 05:00:56;;;;;;;6.18;3.88;;;8.60;99.90;;;;;;5052186;28;20104;-54
2024/03/31 05:03:24;;;;;;;5.85;4.00;;;8.60;99.90;;;;;;5052003;28;20118;-45
2024/03/31 05:05:50;;;;;;;;;;;8.50;99.90;;;;;;5052245;28;20021;-41
2024/03/31 05:08:16;;;;;;;5.00;3.53;;;8.50;99.90;;;;;;5051779;28;20375;-54
2024/03/31 05:10:51;;;;;;;6.32;3.47;;;8.50;99.90;;;;;;5052166;28;20029;-54
2024/03/31 05:13:17;;;;;;;6.65;3.85;;;8.40;99.90;;;;;;5041894;28;20024;-55
2024/03/31 05:15:43;;;;;;;7.30;4.88;;;8.40;99.90;;;;;;5051860;28;20537;-62
2024/03/31 05:18:09;;;;;;;5.68;3.30;;;8.40;99.90;;;;;;5051964;28;20543;-55
2024/03/31 05:20:34;;;;;;;6.47;3.78;;;8.50;99.90;;;;;;5051708;28;20029;-54
2024/03/31 05:23:00;;;;;;;6.30;3.72;;;8.50;99.90;;;;;;5051781;28;20549;-54
2024/03/31 05:25:26;;;;;;;9.77;4.40;;;8.60;99.90;;;;;;5051190;28;20103;-55
2024/03/31 05:27:52;;;;;;;6.22;4.35;;;8.60;99.90;;;;;;5053255;28;20029;-56
2024/03/31 05:30:18;;;;;;;7.40;4.03;;;8.70;99.90;;;;;;5055841;28;20019;-56
2024/03/31 05:32:43;;;;;;;6.80;3.88;;;8.60;99.90;;;;;;5055544;28;20049;-55
2024/03/31 05:35:09;;;;;;;5.63;3.15;;;8.60;99.90;;;;;;5055266;28;20056;-52
2024/03/31 05:37:35;;;;;;;7.60;3.60;;;8.70;99.90;;;;;;5055355;28;20525;-53
2024/03/31 05:40:00;;;;;;;4.72;3.38;;;8.70;99.90;;;;;;5055170;28;20385;-56
2024/03/31 05:42:26;;;;;;;15.13;3.72;;;8.80;99.90;;;;;;5054898;28;20033;-54
2024/03/31 05:44:52;;;;;;;7.10;3.55;;;8.80;99.90;;;;;;5054796;28;20465;-54
2024/03/31 05:47:17;;;;;;;7.15;4.78;;;8.80;99.90;;;;;;5055388;28;20033;-55
2024/03/31 05:49:43;;;;;;;7.40;3.95;;;8.70;99.90;;;;;;5055424;28;20091;-62
2024/03/31 05:52:08;;;;;;;5.82;3.70;;;8.70;99.90;;;;;;5054528;28;20017;-57
2024/03/31 05:54:34;;;;;;;7.85;3.75;;;8.60;99.90;;;;;;5055256;28;20021;-55
2024/03/31 05:57:00;;;;;;;6.93;4.60;;;8.60;99.90;;;;;;5053913;28;20066;-55
2024/03/31 05:59:26;;;;;;;14.43;4.88;;;8.70;99.90;;;;;;5053975;28;20033;-45
2024/03/31 06:01:51;;;;;;;6.95;4.30;;;8.70;99.90;;;;;;5053858;28;20112;-40
2024/03/31 06:04:17;;;;;;;9.85;4.75;;;8.60;99.90;;;;;;5053776;28;20501;-42
2024/03/31 06:06:42;;;;;;;6.18;3.92;;;8.60;99.90;;;;;;5054662;28;20029;-47
2024/03/31 06:09:08;;;;;;;8.25;4.45;;;8.60;99.90;;;;;;5054767;28;20533;-43
2024/03/31 06:11:34;;;;;;;7.07;4.18;;;8.60;99.90;;;;;;5055141;28;20024;-43
2024/03/31 06:13:59;;;;;;;12.75;4.32;;;8.60;99.90;;;;;;5054386;28;20017;-45
2024/03/31 06:16:25;;;;;;;8.57;4.68;;;8.60;99.90;;;;;;5053311;28;20496;-47
2024/03/31 06:18:51;;;;;;;9.38;4.82;;;8.70;99.90;;;;;;5053332;28;20060;-43
2024/03/31 06:21:16;;;;;;;8.57;5.15;;;8.70;99.90;;;;;;5054979;28;20470;-46
2024/03/31 06:23:42;;;;;;;8.98;5.03;;;8.80;99.90;;;;;;5045586;28;20030;-40
2024/03/31 06:26:07;;;;;;;8.82;4.55;;;8.90;99.90;;;;;;5034709;28;20402;-41
2024/03/31 06:28:33;;;;;;;11.32;4.53;;;8.80;99.90;;;;;;5034750;28;20025;-43
2024/03/31 06:30:59;;;;;;;7.68;4.40;;;8.80;99.90;;;;;;5053919;28;20025;-42
2024/03/31 06:33:24;;;;;;;8.18;4.55;;;8.90;99.90;;;;;;5053901;28;20434;-41
2024/03/31 06:35:50;;;;;;;8.48;4.63;;;8.90;99.90;;;;;;5054379;28;20031;-39
2024/03/31 06:38:15;;;;;;;8.60;4.75;;;8.90;99.90;;;;;;5053107;28;20501;-41
2024/03/31 06:40:41;;;;;;;10.48;4.75;;;8.90;99.90;;;;;;5054053;28;20481;-41
2024/03/31 06:43:07;;;;;;;6.82;4.13;;;8.90;99.90;;;;;;5053639;28;20078;-41
2024/03/31 06:45:33;;;;;;;7.20;4.32;;;8.90;99.90;;;;;;5058433;28;20396;-39
2024/03/31 06:47:58;;;;;;;5.72;4.00;;;8.80;99.90;;;;;;5052983;28;20075;-41
2024/03/31 06:50:24;;;;;;;7.57;4.00;;;8.80;99.90;;;;;;5053946;28;20537;-42
2024/03/31 06:52:50;;;;;;;8.02;5.15;;;8.80;99.90;;;;;;5054110;28;20477;-41
2024/03/31 06:55:16;;;;;;;6.65;4.15;;;8.70;99.90;;;;;;5053730;28;20013;-40
2024/03/31 06:57:41;;;;;;;8.07;4.35;;;8.80;99.90;;;;;;5054039;28;20029;-39
2024/03/31 07:00:07;;;;;;;8.32;4.60;;;8.80;99.90;;;;;;5051992;28;20021;-41
2024/03/31 07:02:33;;;;;;;11.15;5.15;;;8.90;99.90;;;;;;5053743;28;20492;-38
2024/03/31 07:04:59;;;;;;;7.18;4.65;;;8.90;99.90;;;;;;5054142;28;20025;-57
2024/03/31 07:07:25;;;;;;;10.15;5.50;;;9.00;99.90;;;;;;5053701;28;20036;-53
2024/03/31 07:09:50;;;;;;;11.20;5.63;;;9.10;99.90;;;;;;5053568;28;20385;-54
2024/03/31 07:12:16;;;;;;;8.95;5.10;;;9.10;99.90;;;;;;5053854;28;20032;-39
2024/03/31 07:14:42;;;;;;;12.48;6.38;;;9.10;99.90;;;;;;5053417;28;20428;-41
2024/03/31 07:17:08;;;;;;;8.90;5.13;;;9.10;99.90;;;;;;5052301;28;20021;-41
2024/03/31 07:19:33;;;;;;;8.15;5.38;;;9.10;99.90;;;;;;5052475;28;20107;-43
2024/03/31 07:21:59;;;;;;;11.07;6.13;;;9.20;99.90;;;;;;5053550;28;20028;-40
2024/03/31 07:24:25;;;;;;;11.50;6.50;;;9.30;99.90;;;;;;5053434;28;20025;-41
2024/03/31 07:26:50;;;;;;;9.73;5.68;;;9.40;99.90;;;;;;5053454;28;20439;-41
2024/03/31 07:29:16;;;;;;;12.00;5.78;;;9.40;99.90;;;;;;5052507;28;20036;-52
2024/03/31 07:31:41;;;;;;;11.40;6.85;;;9.50;99.90;;;;;;5053062;28;20017;-41
2024/03/31 07:34:07;;;;;;;11.35;6.53;;;9.50;99.90;;;;;;5053323;28;20488;-43
2024/03/31 07:36:32;;;;;;;12.40;6.88;;;9.60;99.90;;;;;;5053275;28;20082;-42
2024/03/31 07:38:58;;;;;;;11.05;7.03;;;9.70;99.90;;;;;;5051122;28;20477;-39
2024/03/31 07:41:24;;;;;;;12.52;6.45;;;9.80;99.90;;;;;;5053003;28;20135;-46
2024/03/31 07:43:49;;;;;;;11.95;7.22;;;9.80;99.90;;;;;;5052446;28;20025;-40
2024/03/31 07:46:15;;;;;;;11.85;7.25;;;10.00;99.90;;;;;;5033960;28;20409;-42
2024/03/31 07:48:41;;;;;;;12.30;7.22;;;10.00;99.90;;;;;;5038108;28;20504;-39
2024/03/31 07:51:06;;;;;;;12.68;7.25;;;10.10;99.90;;;;;;5052721;28;20517;-39
2024/03/31 07:53:32;;;;;;;12.80;7.25;;;10.10;99.90;;;;;;5053230;28;20104;-43
2024/03/31 07:55:58;;;;;;;13.25;7.57;;;10.10;99.90;;;;;;5052898;28;20379;-41
2024/03/31 07:58:24;;;;;;;16.65;7.93;;;10.20;99.90;;;;;;5051942;28;20032;-40
2024/03/31 08:00:52;;;;;;;13.63;7.35;;;10.30;99.90;;;;;;5052289;28;20102;-38
2024/03/31 08:03:17;;;;;;;16.90;8.23;;;10.40;99.90;;;;;;5053039;28;20017;-39
2024/03/31 08:05:43;;;;;;;17.13;8.20;;;10.40;99.90;;;;;;5053058;28;20024;-39
2024/03/31 08:08:10;;;;;;;16.27;8.13;;;10.50;99.90;;;;;;5052472;28;20021;-38
2024/03/31 08:10:35;;;;;;;21.25;8.88;;;10.50;99.90;;;;;;5052851;28;20048;-39
2024/03/31 08:13:01;;;;;;;16.05;8.93;;;10.60;99.90;;;;;;5050856;28;20182;-39
2024/03/31 08:15:30;;;;;;;18.65;8.88;;;10.70;99.90;;;;;;5052639;28;20465;-41
2024/03/31 08:17:55;;;;;;;16.85;9.85;;;10.90;99.90;;;;;;5051714;28;20592;-37
2024/03/31 08:20:21;;;;;;;18.13;9.52;;;10.90;99.90;;;;;;5051784;28;20108;-53
2024/03/31 08:22:47;;;;;;;20.50;10.77;;;10.90;99.90;;;;;;5051248;28;20155;-38
2024/03/31 08:25:12;;;;;;;21.25;11.00;;;10.90;99.90;;;;;;5052309;28;20478;-40
2024/03/31 08:27:38;;;;;;;18.17;10.48;;;10.90;99.90;;;;;;5052120;28;20436;-40
2024/03/31 08:30:04;;;;;;;20.08;10.60;;;11.00;99.90;;;;;;5052158;28;20108;-43
2024/03/31 08:32:30;;;;;;;19.13;11.13;;;11.10;99.90;;;;;;5051243;28;20473;-38
2024/03/31 08:34:55;;;;;;;27.48;11.70;;;11.10;99.90;;;;;;5052268;28;20031;-39
2024/03/31 08:37:21;;;;;;;20.25;11.52;;;11.10;99.90;;;;;;5051857;28;20104;-38
2024/03/31 08:39:46;;;;;;;21.00;11.23;;;11.30;99.90;;;;;;5051955;28;20392;-40
2024/03/31 08:42:45;;;;;;;30.55;12.20;;;11.50;99.90;;;;;;5052149;28;20031;-40
2024/03/31 08:45:15;;;;;;;20.92;11.48;;;11.70;99.90;;;;;;5032335;28;20417;-39
2024/03/31 08:47:43;;;;;;;20.40;11.52;;;11.90;99.90;;;;;;5032364;28;20021;-37
2024/03/31 08:50:09;;;;;;;;;;;12.00;99.90;;;;;;5052196;28;20025;-41
2024/03/31 08:52:35;;;;;;;20.92;11.55;;;11.90;99.90;;;;;;5052029;28;20368;-38
2024/03/31 08:55:03;;;;;;;21.48;10.88;;;11.90;99.90;;;;;;5050739;28;20021;-39
2024/03/31 08:57:29;;;;;;;20.13;11.05;;;11.90;99.90;;;;;;5052335;28;20025;-38
2024/03/31 08:59:55;;;;;;;20.52;11.45;;;11.80;99.90;;;;;;5051634;28;20028;-38
2024/03/31 09:02:25;;;;;;;21.65;12.07;;;11.70;99.90;;;;;;5054917;28;20029;-39
2024/03/31 09:04:51;;;;;;;20.73;11.48;;;11.80;99.90;;;;;;5056177;28;20512;-39
2024/03/31 09:07:18;;;;;;;20.95;11.23;;;11.70;99.90;;;;;;5055629;28;20527;-37
2024/03/31 09:09:44;;;;;;;22.92;11.73;;;11.80;99.90;;;;;;5055892;28;20155;-41
2024/03/31 09:12:10;;;;;;;18.33;11.25;;;11.90;99.90;;;;;;5056192;28;20489;-38
2024/03/31 09:14:40;;;;;;;22.48;12.52;;;11.90;99.90;;;;;;5055433;28;20382;-41
2024/03/31 09:17:07;;;;;;;21.90;12.13;;;12.00;99.90;;;;;;5056125;28;20106;-39
2024/03/31 09:19:32;;;;;;;18.92;12.48;;;12.00;99.90;;;;;;5055590;28;20455;-44
2024/03/31 09:21:58;;;;;;;24.67;13.35;;;12.10;99.90;;;;;;5055167;28;20029;-48
2024/03/31 09:24:24;;;;;;;25.52;13.07;;;12.10;99.90;;;;;;5055254;28;20025;-41
2024/03/31 09:26:50;;;;;;;20.17;12.50;;;12.30;99.90;;;;;;5054404;28;20108;-42
2024/03/31 09:29:16;;;;;;;21.90;12.15;;;12.50;99.90;;;;;;5054928;28;20099;-41
2024/03/31 09:31:41;;;;;;;22.70;12.73;;;12.70;99.90;;;;;;5054344;28;20029;-42
2024/03/31 09:34:07;;;;;;;24.15;13.90;;;12.80;99.90;;;;;;5053837;28;20027;-42
2024/03/31 09:36:41;;;;;;;24.33;13.48;;;12.90;99.90;;;;;;5055102;28;20385;-41
2024/03/31 09:39:07;;;;;;;22.27;13.20;;;13.00;99.90;;;;;;5039156;28;20025;-42
2024/03/31 09:41:34;;;;;;;27.33;14.73;;;13.10;99.90;;;;;;5055635;28;20386;-54
2024/03/31 09:44:00;;;;;;;22.25;13.50;;;13.10;99.90;;;;;;5055437;28;20025;-56
2024/03/31 09:46:27;;;;;;;22.02;13.35;;;13.20;99.90;;;;;;5055230;28;20029;-54
2024/03/31 09:49:10;;;;;;;26.67;13.90;;;13.20;99.90;;;;;;5055152;28;20029;-43
2024/03/31 09:51:39;;;;;;;22.35;13.50;;;13.30;99.90;;;;;;5055480;28;20017;-43
2024/03/31 09:54:14;;;;;;;21.98;13.30;;;13.30;99.90;;;;;;5055204;28;20024;-41
2024/03/31 09:56:43;;;;;;;21.00;12.57;;;13.30;99.90;;;;;;5055113;28;20025;-42
2024/03/31 09:59:10;;;;;;;21.58;13.45;;;13.30;99.90;;;;;;5055406;28;20029;-44
2024/03/31 10:01:39;;;;;;;29.42;14.27;;;13.40;99.90;;;;;;5040464;28;20064;-50
2024/03/31 10:04:21;;;;;;;21.67;13.05;;;13.60;99.90;;;;;;5055257;28;20501;-54
2024/03/31 10:06:48;;;;;;;22.20;12.52;;;13.70;99.90;;;;;;5055074;28;20466;-40
2024/03/31 10:09:16;;;;;;;19.92;12.93;;;13.70;99.90;;;;;;5054885;28;20025;-46
2024/03/31 10:11:43;;;;;;;24.52;12.77;;;13.80;99.90;;;;;;5054514;28;20621;-40
2024/03/31 10:14:09;;;;;;;20.95;12.55;;;13.90;99.90;;;;;;5054614;28;20108;-48
2024/03/31 10:16:37;;;;;;;27.23;13.02;;;14.20;99.90;;;;;;5054791;28;20052;-47
2024/03/31 10:19:03;;;;;;;21.40;12.43;;;14.70;99.90;;;;;;5054303;28;20056;-41
2024/03/31 10:21:29;;;;;;;21.23;12.38;;;15.10;99.90;;;;;;5054628;28;20520;-41
2024/03/31 10:23:56;;;;;;;21.63;12.63;;;15.40;99.90;;;;;;5053294;28;20488;-39
2024/03/31 10:26:22;;;;;;;24.60;11.43;;;15.70;99.90;;;;;;5053512;28;20033;-40
2024/03/31 10:28:50;;;;;;;21.77;11.68;;;15.80;99.90;;;;;;5054400;28;20458;-49
2024/03/31 10:31:16;;;;;;;16.15;10.20;;;15.90;99.90;;;;;;5054388;28;20024;-43
2024/03/31 10:33:42;;;;;;;22.35;10.77;;;16.00;99.90;;;;;;5051765;28;20120;-43
2024/03/31 10:36:11;;;;;;;17.45;10.13;;;16.00;99.90;;;;;;5034535;28;20108;-56
2024/03/31 10:38:43;;;;;;;18.73;10.27;;;16.10;99.90;;;;;;5034685;28;20029;-56
2024/03/31 10:41:10;;;;;;;17.73;9.00;;;16.10;99.90;;;;;;5066173;28;20669;-54
2024/03/31 10:43:36;;;;;;;16.43;7.90;;;16.10;99.90;;;;;;5064051;28;20071;-53
2024/03/31 10:46:02;;;;;;;11.55;7.30;;;16.10;99.90;;;;;;5054261;28;20108;-53
2024/03/31 10:48:27;;;;;;;15.43;6.95;;;16.10;99.90;;;;;;5038670;28;20120;-56
2024/03/31 10:50:53;;;;;;;14.77;7.03;;;16.10;99.90;;;;;;5053210;28;20079;-54
2024/03/31 10:53:26;;;;;;;12.63;7.15;;;16.20;99.90;;;;;;5052822;28;20025;-56
2024/03/31 10:55:52;;;;;;;10.90;5.30;;;16.20;99.90;;;;;;5053208;28;20104;-53
2024/03/31 10:58:17;;;;;;;9.35;6.15;;;16.10;99.90;;;;;;5054075;28;20063;-54
2024/03/31 11:00:44;;;;;;;11.52;5.53;;;16.20;99.90;;;;;;5053050;28;20029;-54
2024/03/31 11:03:10;;;;;;;12.90;5.15;;;16.50;99.90;;;;;;5052963;28;20397;-52
2024/03/31 11:05:39;;;;;;;9.70;2.55;;;16.60;99.90;;;;;;5052070;28;20036;-52
2024/03/31 11:08:05;;;;;;;12.73;3.22;;;16.80;99.90;;;;;;5047499;28;20021;-55
2024/03/31 11:10:32;;;;;;;9.85;3.97;;;16.90;99.90;;;;;;5050602;28;20029;-53
2024/03/31 11:12:58;;;;;;;9.90;4.15;;;17.00;99.90;;;;;;5052362;28;20500;-51
2024/03/31 11:15:24;;;;;;;14.10;4.85;;;17.10;99.90;;;;;;5053589;28;20100;-54
2024/03/31 11:17:49;;;;;;;6.07;3.85;;;17.20;99.90;;;;;;5053616;28;20151;-55
2024/03/31 11:20:16;;;;;;;8.07;3.70;;;17.30;99.90;;;;;;5053550;28;20045;-54
2024/03/31 11:22:42;;;;;;;5.40;3.50;;;17.50;99.90;;;;;;5053909;28;20033;-54
2024/03/31 11:25:08;;;;;;;5.47;3.17;;;17.70;99.90;;;;;;5045818;28;20088;-55
2024/03/31 11:27:35;;;;;;;17.98;3.80;;;17.80;99.90;;;;;;5037679;28;20049;-53
2024/03/31 11:30:02;;;;;;;11.03;3.53;;;17.90;99.90;;;;;;5053574;28;20389;-46
2024/03/31 11:32:29;;;;;;;11.52;2.95;;;18.00;99.90;;;;;;5035100;28;20026;-43
2024/03/31 11:34:55;;;;;;;12.23;3.60;;;18.10;99.90;;;;;;5039222;28;20397;-42
2024/03/31 11:37:21;;;;;;;8.25;4.15;;;18.00;99.90;;;;;;5053516;28;20477;-39
2024/03/31 11:39:47;;;;;;;11.35;4.00;;;17.90;99.90;;;;;;5053021;28;20115;-42
2024/03/31 11:42:14;;;;;;;6.57;3.17;;;17.80;99.90;;;;;;5053095;28;20032;-41
2024/03/31 11:44:40;;;;;;;14.77;3.65;;;17.70;99.90;;;;;;5053026;28;20120;-45
2024/03/31 11:47:07;;;;;;;5.10;3.58;;;17.70;99.90;;;;;;5053368;28;20053;-41
2024/03/31 11:49:34;;;;;;;11.60;4.55;;;17.80;99.90;;;;;;5053238;28;20028;-42
2024/03/31 11:52:00;;;;;;;12.05;4.45;;;17.80;99.90;;;;;;5053048;28;20078;-40
2024/03/31 11:54:27;;;;;;;11.75;5.55;;;17.90;99.90;;;;;;5037033;28;20030;-45
2024/03/31 11:56:53;;;;;;;10.63;4.27;;;18.00;99.90;;;;;;5050912;28;20481;-43
2024/03/31 11:59:20;;;;;;;8.63;3.35;;;18.20;99.90;;;;;;5053073;28;20021;-44
2024/03/31 12:01:55;;;;;;;8.27;3.53;;;18.40;99.90;;;;;;5052691;28;20117;-42
2024/03/31 12:04:20;;;;;;;8.93;4.05;;;18.70;99.90;;;;;;5047968;28;20494;-44
2024/03/31 12:06:46;;;;;;;11.73;3.50;;;18.50;99.90;;;;;;5033017;28;20032;-40
2024/03/31 12:09:14;;;;;;;11.68;4.50;;;18.10;99.90;;;;;;5044717;28;20119;-47
2024/03/31 12:11:42;;;;;;;6.07;3.58;;;17.80;99.90;;;;;;5049283;28;20036;-49
2024/03/31 12:14:08;;;;;;;9.05;4.10;;;17.60;99.90;;;;;;5054957;28;20032;-43
2024/03/31 12:16:34;;;;;;;8.05;3.92;;;17.40;99.90;;;;;;5061890;28;20100;-44
2024/03/31 12:18:59;;;;;;;10.23;4.43;;;17.40;99.90;;;;;;5052329;28;20128;-42
2024/03/31 12:21:27;;;;;;;9.68;4.00;;;17.50;99.90;;;;;;5069532;28;20035;-42
2024/03/31 12:23:54;;;;;;;13.38;5.07;;;17.60;99.90;;;;;;5072411;28;20161;-43
2024/03/31 12:26:24;;;;;;;10.80;5.05;;;17.70;99.90;;;;;;5072444;28;20484;-45
2024/03/31 12:28:49;;;;;;;7.05;4.18;;;17.50;99.90;;;;;;5052156;28;20109;-40
2024/03/31 12:31:17;;;;;;;12.65;5.82;;;17.20;99.90;;;;;;5052377;28;20052;-41
2024/03/31 12:33:44;;;;;;;15.65;5.15;;;17.10;99.90;;;;;;5052300;28;20490;-41
2024/03/31 12:36:10;;;;;;;17.70;4.57;;;17.00;99.90;;;;;;5052056;28;20485;-42
2024/03/31 12:38:36;;;;;;;13.73;4.07;;;17.00;99.90;;;;;;5052208;28;20033;-46
2024/03/31 12:41:02;;;;;;;19.90;4.97;;;16.90;99.90;;;;;;5052414;28;20523;-40